Time;durP1;ratioP1;P1;durP2;ratioP2;P2;SDS_P1;SDS_P2;PMS_P1;PMS_P2;Temp;Humidity;BMP_temperature;BMP_pressure;BME280_temperature;BME280_humidity;BME280_pressure;Samples;Min_cycle;Max_cycle;Signal;HPM_P1;HPM_P2
2021/07/23 00:01:31;;;;;;;29.92;12.85;;;26.40;63.80;;;;;;4982921;28;20034;-60
2021/07/23 00:03:57;;;;;;;24.92;12.55;;;26.40;63.90;;;;;;4982348;28;20149;-59
2021/07/23 00:06:22;;;;;;;25.15;13.20;;;26.30;63.80;;;;;;4981357;28;20330;-58
2021/07/23 00:08:48;;;;;;;20.23;11.65;;;26.30;63.90;;;;;;4984107;28;20034;-59
2021/07/23 00:11:13;;;;;;;17.58;11.82;;;26.30;63.90;;;;;;4984099;28;20606;-59
2021/07/23 00:13:39;;;;;;;20.88;11.88;;;26.30;64.00;;;;;;4984925;28;20030;-58
2021/07/23 00:16:04;;;;;;;26.00;11.93;;;26.20;64.00;;;;;;4983706;28;20454;-61
2021/07/23 00:18:30;;;;;;;23.42;12.10;;;26.20;64.00;;;;;;4985164;28;20497;-58
2021/07/23 00:20:55;;;;;;;19.05;11.02;;;26.20;64.00;;;;;;4985514;28;20046;-59
2021/07/23 00:23:21;;;;;;;20.42;12.05;;;26.10;64.20;;;;;;4983667;28;20038;-59
2021/07/23 00:25:46;;;;;;;20.15;10.30;;;26.10;64.30;;;;;;4984182;28;20034;-59
2021/07/23 00:28:12;;;;;;;22.88;11.65;;;26.10;64.30;;;;;;4982185;28;20056;-59
2021/07/23 00:30:38;;;;;;;17.73;11.50;;;26.10;64.50;;;;;;4984991;28;20045;-59
2021/07/23 00:33:03;;;;;;;17.52;12.02;;;26.10;64.50;;;;;;4984284;28;20088;-59
2021/07/23 00:35:29;;;;;;;18.30;10.75;;;26.00;64.60;;;;;;4984309;28;20085;-59
2021/07/23 00:37:56;;;;;;;21.60;11.10;;;26.00;64.80;;;;;;4983602;28;20069;-58
2021/07/23 00:40:22;;;;;;;18.90;11.95;;;26.00;64.80;;;;;;4980993;28;20022;-59
2021/07/23 00:42:48;;;;;;;17.42;11.70;;;25.90;64.90;;;;;;4999232;28;20110;-59
2021/07/23 00:45:15;;;;;;;18.63;11.93;;;25.90;65.00;;;;;;4981846;28;20065;-59
2021/07/23 00:47:45;;;;;;;14.93;11.02;;;25.90;65.00;;;;;;4982883;28;20023;-58
2021/07/23 00:50:10;;;;;;;20.30;11.50;;;25.90;65.20;;;;;;4983153;28;20533;-58
2021/07/23 00:52:36;;;;;;;13.73;10.82;;;25.80;65.20;;;;;;4981591;28;20129;-58
2021/07/23 00:55:02;;;;;;;16.85;11.98;;;25.80;65.40;;;;;;4982199;28;20065;-59
2021/07/23 00:57:27;;;;;;;16.27;10.63;;;25.70;65.40;;;;;;4983174;28;20427;-58
2021/07/23 00:59:53;;;;;;;17.17;11.18;;;25.70;65.50;;;;;;4966830;28;20174;-58
2021/07/23 01:02:18;;;;;;;15.48;11.30;;;25.70;65.70;;;;;;4980473;28;20058;-59
2021/07/23 01:04:48;;;;;;;17.25;10.73;;;25.70;65.70;;;;;;4983138;28;20030;-59
2021/07/23 01:07:13;;;;;;;13.77;12.10;;;25.70;65.80;;;;;;4982479;28;20398;-59
2021/07/23 01:09:39;;;;;;;17.85;10.60;;;25.70;65.90;;;;;;4982674;28;20034;-58
2021/07/23 01:12:05;;;;;;;14.73;10.55;;;25.60;66.00;;;;;;4983955;28;20177;-58
2021/07/23 01:14:32;;;;;;;19.73;11.32;;;25.60;66.10;;;;;;4982997;28;20046;-59
2021/07/23 01:16:57;;;;;;;16.52;11.25;;;25.60;66.90;;;;;;4981585;28;20030;-58
2021/07/23 01:19:24;;;;;;;13.45;10.30;;;25.50;66.20;;;;;;4981559;28;20073;-59
2021/07/23 01:21:50;;;;;;;18.27;10.82;;;25.50;66.30;;;;;;4982339;28;20054;-59
2021/07/23 01:24:15;;;;;;;18.80;10.95;;;25.40;66.30;;;;;;4982344;28;20085;-59
2021/07/23 01:26:41;;;;;;;16.08;10.82;;;25.40;66.50;;;;;;4982387;28;20027;-59
2021/07/23 01:29:07;;;;;;;13.07;11.68;;;25.40;66.50;;;;;;4983484;28;20054;-61
2021/07/23 01:31:32;;;;;;;15.13;11.27;;;25.40;66.60;;;;;;4980684;28;20061;-59
2021/07/23 01:33:58;;;;;;;15.00;11.23;;;25.40;66.80;;;;;;4982349;28;20449;-59
2021/07/23 01:36:25;;;;;;;16.48;11.80;;;25.40;66.80;;;;;;4981023;28;20077;-58
2021/07/23 01:38:51;;;;;;;16.23;11.50;;;25.30;66.80;;;;;;4982272;28;20409;-59
2021/07/23 01:41:16;;;;;;;13.30;11.30;;;25.30;66.90;;;;;;4982257;28;20033;-59
2021/07/23 01:43:42;;;;;;;16.20;11.00;;;25.20;66.90;;;;;;4982840;28;20039;-58
2021/07/23 01:46:07;;;;;;;19.48;12.00;;;25.20;67.10;;;;;;4981510;28;20039;-58
2021/07/23 01:48:33;;;;;;;14.65;10.85;;;25.20;67.20;;;;;;4981424;28;20045;-58
2021/07/23 01:50:58;;;;;;;11.88;10.60;;;25.20;67.20;;;;;;4981987;28;20396;-58
2021/07/23 01:53:24;;;;;;;18.92;11.70;;;25.20;67.20;;;;;;4983856;28;20028;-59
2021/07/23 01:55:49;;;;;;;16.23;10.57;;;25.20;67.30;;;;;;4983052;28;20044;-58
2021/07/23 01:58:15;;;;;;;11.45;9.93;;;25.10;67.30;;;;;;4996943;28;20030;-58
2021/07/23 02:00:40;;;;;;;15.63;10.57;;;25.10;67.40;;;;;;4982652;28;20450;-59
2021/07/23 02:03:06;;;;;;;13.07;10.35;;;25.10;67.40;;;;;;4983880;28;20023;-58
2021/07/23 02:05:31;;;;;;;14.35;11.32;;;25.00;67.50;;;;;;4983216;28;20671;-59
2021/07/23 02:07:58;;;;;;;10.32;9.23;;;25.00;67.50;;;;;;4982370;28;20097;-61
2021/07/23 02:10:24;;;;;;;12.52;9.77;;;25.00;67.60;;;;;;4980564;28;20034;-59
2021/07/23 02:12:49;;;;;;;15.48;10.18;;;24.90;67.70;;;;;;4982849;28;20046;-58
2021/07/23 02:15:15;;;;;;;13.48;10.18;;;24.90;67.80;;;;;;4982294;28;20034;-59
2021/07/23 02:17:40;;;;;;;14.73;10.10;;;24.90;67.80;;;;;;4981850;28;20059;-59
2021/07/23 02:20:06;;;;;;;17.85;10.18;;;24.90;67.90;;;;;;4982020;28;20033;-58
2021/07/23 02:22:32;;;;;;;13.55;9.48;;;24.90;68.00;;;;;;4982357;28;20046;-60
2021/07/23 02:24:57;;;;;;;14.52;9.60;;;24.80;68.00;;;;;;4981011;28;20475;-58
2021/07/23 02:27:23;;;;;;;12.43;9.15;;;24.80;68.10;;;;;;4982305;28;20085;-58
2021/07/23 02:29:48;;;;;;;12.52;10.07;;;24.80;68.30;;;;;;4983318;28;20072;-58
2021/07/23 02:32:14;;;;;;;10.73;8.98;;;24.70;68.20;;;;;;4981409;28;20478;-58
2021/07/23 02:34:39;;;;;;;15.90;9.95;;;24.70;68.30;;;;;;4983117;28;20386;-58
2021/07/23 02:37:05;;;;;;;16.17;9.55;;;24.70;68.50;;;;;;4979967;28;20474;-59
2021/07/23 02:39:30;;;;;;;12.02;9.75;;;24.60;68.40;;;;;;4981313;28;20054;-58
2021/07/23 02:41:56;;;;;;;11.23;10.13;;;24.60;68.50;;;;;;4983317;28;20022;-59
2021/07/23 02:44:21;;;;;;;14.35;10.70;;;24.60;68.60;;;;;;4982468;28;20599;-58
2021/07/23 02:46:47;;;;;;;11.75;10.15;;;24.60;68.60;;;;;;4981767;28;20042;-59
2021/07/23 02:49:12;;;;;;;10.90;9.27;;;24.60;68.70;;;;;;4982925;28;20030;-59
2021/07/23 02:51:38;;;;;;;11.18;10.02;;;24.50;68.70;;;;;;4982639;28;20068;-58
2021/07/23 02:54:03;;;;;;;11.85;9.93;;;24.50;68.80;;;;;;4983416;28;20026;-58
2021/07/23 02:56:29;;;;;;;12.68;10.68;;;24.50;68.90;;;;;;4983511;28;20401;-58
2021/07/23 02:58:54;;;;;;;11.13;9.98;;;24.50;69.00;;;;;;4983086;28;20032;-58
2021/07/23 03:01:20;;;;;;;14.05;9.60;;;24.50;68.90;;;;;;4981688;28;20049;-59
2021/07/23 03:03:45;;;;;;;10.60;9.55;;;24.50;69.00;;;;;;4985403;28;20205;-58
2021/07/23 03:06:11;;;;;;;13.80;9.93;;;24.40;69.00;;;;;;4987382;28;20030;-59
2021/07/23 03:08:37;;;;;;;12.30;9.35;;;24.40;69.00;;;;;;4986687;28;20026;-58
2021/07/23 03:11:03;;;;;;;11.02;9.35;;;24.40;69.10;;;;;;4987352;28;20092;-58
2021/07/23 03:13:28;;;;;;;13.88;10.07;;;24.30;69.10;;;;;;4985952;28;20469;-58
2021/07/23 03:15:54;;;;;;;10.05;9.15;;;24.40;69.30;;;;;;4984112;28;20125;-59
2021/07/23 03:18:19;;;;;;;10.80;9.40;;;24.30;69.30;;;;;;4990021;28;20050;-59
2021/07/23 03:20:45;;;;;;;13.05;9.93;;;24.30;69.40;;;;;;4985281;28;20473;-59
2021/07/23 03:23:10;;;;;;;10.13;9.23;;;24.20;69.40;;;;;;4987022;28;20040;-59
2021/07/23 03:25:36;;;;;;;10.77;9.70;;;24.10;69.40;;;;;;4985715;28;20027;-58
2021/07/23 03:28:01;;;;;;;10.88;9.38;;;24.10;69.50;;;;;;4984429;28;20038;-58
2021/07/23 03:30:27;;;;;;;16.23;8.85;;;24.10;69.60;;;;;;4984818;28;20094;-59
2021/07/23 03:32:53;;;;;;;11.63;9.90;;;24.10;69.80;;;;;;4985015;28;20047;-58
2021/07/23 03:35:19;;;;;;;10.02;9.00;;;24.00;69.90;;;;;;4984242;28;20050;-58
2021/07/23 03:37:44;;;;;;;10.10;8.75;;;24.00;70.00;;;;;;4982183;28;20050;-59
2021/07/23 03:40:10;;;;;;;10.63;9.63;;;24.00;70.10;;;;;;4982480;28;20054;-59
2021/07/23 03:42:35;;;;;;;11.00;9.00;;;24.00;70.10;;;;;;4983865;28;20065;-58
2021/07/23 03:45:01;;;;;;;11.73;8.90;;;23.90;70.20;;;;;;4984014;28;20454;-58
2021/07/23 03:47:26;;;;;;;10.52;9.15;;;23.90;70.20;;;;;;4982118;28;20379;-59
2021/07/23 03:49:52;;;;;;;10.27;8.98;;;23.80;70.30;;;;;;4983132;28;20034;-59
2021/07/23 03:52:17;;;;;;;10.07;8.57;;;23.80;70.40;;;;;;4984502;28;20078;-58
2021/07/23 03:54:43;;;;;;;9.35;8.32;;;23.80;70.50;;;;;;4983105;28;20105;-58
2021/07/23 03:57:08;;;;;;;12.85;9.35;;;23.80;70.50;;;;;;4984024;28;20054;-59
2021/07/23 03:59:34;;;;;;;10.80;9.00;;;23.70;70.50;;;;;;4983067;28;20484;-58
2021/07/23 04:02:00;;;;;;;11.57;9.05;;;23.70;70.60;;;;;;4966226;28;20056;-59
2021/07/23 04:04:25;;;;;;;9.55;8.13;;;23.70;70.70;;;;;;4967618;28;20271;-58
2021/07/23 04:06:59;;;;;;;10.93;9.75;;;23.70;70.70;;;;;;4984959;28;20054;-59
2021/07/23 04:09:27;;;;;;;11.13;8.80;;;23.60;70.70;;;;;;4984902;28;20061;-59
2021/07/23 04:11:53;;;;;;;9.57;8.27;;;23.60;70.80;;;;;;4984315;28;20293;-58
2021/07/23 04:14:22;;;;;;;9.35;8.45;;;23.60;70.90;;;;;;4984566;28;20034;-58
2021/07/23 04:16:48;;;;;;;11.55;9.23;;;23.60;71.00;;;;;;4985856;28;20129;-58
2021/07/23 04:19:13;;;;;;;12.90;8.95;;;23.60;71.10;;;;;;4985204;28;20132;-58
2021/07/23 04:21:39;;;;;;;11.80;8.20;;;23.50;71.10;;;;;;4985372;28;20450;-59
2021/07/23 04:24:06;;;;;;;11.00;8.15;;;23.50;71.10;;;;;;4985793;28;20493;-59
2021/07/23 04:26:31;;;;;;;10.38;8.52;;;23.50;71.10;;;;;;4984122;28;20233;-59
2021/07/23 04:28:57;;;;;;;8.57;7.70;;;23.50;71.30;;;;;;4985645;28;20030;-58
2021/07/23 04:31:22;;;;;;;12.05;9.32;;;23.50;71.20;;;;;;4983885;28;20037;-59
2021/07/23 04:33:48;;;;;;;11.55;9.10;;;23.40;71.30;;;;;;4984167;28;20038;-59
2021/07/23 04:36:14;;;;;;;8.90;8.07;;;23.40;71.30;;;;;;4982872;28;20109;-59
2021/07/23 04:38:39;;;;;;;10.45;8.45;;;23.40;71.30;;;;;;4985384;28;20124;-58
2021/07/23 04:41:05;;;;;;;9.65;8.35;;;23.40;71.30;;;;;;4985348;28;20363;-59
2021/07/23 04:43:38;;;;;;;8.90;7.72;;;23.40;71.40;;;;;;4969830;28;20077;-58
2021/07/23 04:46:03;;;;;;;9.68;8.35;;;23.40;71.40;;;;;;4981982;28;20430;-58
2021/07/23 04:48:29;;;;;;;14.15;9.43;;;23.30;71.40;;;;;;4982926;28;20026;-58
2021/07/23 04:50:54;;;;;;;9.73;8.75;;;23.30;71.60;;;;;;4983767;28;20037;-58
2021/07/23 04:53:20;;;;;;;9.13;8.23;;;23.30;71.60;;;;;;4984015;28;20053;-57
2021/07/23 04:55:50;;;;;;;9.82;8.23;;;23.30;71.70;;;;;;4983787;28;20041;-58
2021/07/23 04:58:16;;;;;;;9.20;8.30;;;23.30;71.70;;;;;;4984035;28;20038;-59
2021/07/23 05:00:42;;;;;;;9.20;8.27;;;23.30;71.80;;;;;;4983747;28;20151;-58
2021/07/23 05:03:07;;;;;;;9.45;8.45;;;23.20;71.60;;;;;;4983293;28;20072;-59
2021/07/23 05:05:33;;;;;;;10.07;9.05;;;23.30;71.80;;;;;;4966756;28;20113;-58
2021/07/23 05:07:59;;;;;;;9.77;8.77;;;23.20;71.80;;;;;;4983186;28;20127;-58
2021/07/23 05:10:24;;;;;;;8.75;7.68;;;23.20;71.80;;;;;;4980580;28;20081;-58
2021/07/23 05:12:50;;;;;;;8.90;7.95;;;23.20;71.80;;;;;;4981692;28;20039;-59
2021/07/23 05:15:15;;;;;;;12.65;8.57;;;23.20;71.90;;;;;;4999349;28;20030;-59
2021/07/23 05:17:41;;;;;;;10.02;8.18;;;23.20;72.00;;;;;;4983029;28;20036;-58
2021/07/23 05:20:07;;;;;;;9.77;8.77;;;23.10;72.00;;;;;;4983875;28;20529;-58
2021/07/23 05:22:33;;;;;;;8.60;7.78;;;23.10;72.10;;;;;;4984148;28;20485;-59
2021/07/23 05:24:58;;;;;;;9.25;8.35;;;23.10;72.20;;;;;;4982231;28;20031;-59
2021/07/23 05:27:24;;;;;;;9.52;8.35;;;23.10;72.30;;;;;;4983844;28;20061;-58
2021/07/23 05:29:51;;;;;;;12.50;9.00;;;23.10;72.30;;;;;;4984312;28;20049;-58
2021/07/23 05:32:17;;;;;;;9.20;8.30;;;23.00;72.30;;;;;;4984073;28;20621;-58
2021/07/23 05:34:42;;;;;;;11.35;8.73;;;23.10;72.40;;;;;;4981944;28;20037;-59
2021/07/23 05:37:08;;;;;;;8.80;7.80;;;23.00;72.40;;;;;;4978210;28;20042;-59
2021/07/23 05:39:33;;;;;;;10.55;7.90;;;23.00;72.40;;;;;;4980479;28;20395;-58
2021/07/23 05:42:02;;;;;;;9.07;8.05;;;23.00;72.50;;;;;;4981122;28;20031;-58
2021/07/23 05:44:30;;;;;;;10.13;8.32;;;23.00;72.60;;;;;;4982455;28;20478;-58
2021/07/23 05:46:57;;;;;;;11.00;8.52;;;23.00;72.60;;;;;;4981773;28;20037;-59
2021/07/23 05:49:23;;;;;;;9.43;8.52;;;23.00;72.70;;;;;;4978800;28;20057;-59
2021/07/23 05:51:48;;;;;;;10.23;8.98;;;22.90;72.70;;;;;;4980356;28;20126;-59
2021/07/23 05:54:14;;;;;;;9.05;8.15;;;22.90;72.70;;;;;;4981483;28;20026;-58
2021/07/23 05:56:39;;;;;;;14.07;8.77;;;22.90;72.60;;;;;;4981760;28;20826;-58
2021/07/23 05:59:05;;;;;;;10.63;8.35;;;22.90;72.60;;;;;;4983545;28;20053;-59
2021/07/23 06:01:30;;;;;;;10.85;8.88;;;23.00;72.60;;;;;;4979869;28;20034;-59
2021/07/23 06:03:56;;;;;;;13.27;9.25;;;22.90;72.70;;;;;;4979482;28;20049;-58
2021/07/23 06:06:21;;;;;;;10.80;8.82;;;22.90;72.70;;;;;;4981655;28;20045;-58
2021/07/23 06:08:47;;;;;;;11.80;8.52;;;23.00;72.70;;;;;;4980521;28;20042;-58
2021/07/23 06:11:12;;;;;;;10.35;8.50;;;22.90;72.70;;;;;;4980951;28;20030;-58
2021/07/23 06:13:38;;;;;;;9.43;8.40;;;23.00;72.80;;;;;;4982688;28;20034;-58
2021/07/23 06:16:07;;;;;;;10.63;8.70;;;22.90;72.80;;;;;;4979475;28;20030;-59
2021/07/23 06:18:33;;;;;;;16.27;9.27;;;22.90;72.80;;;;;;4977674;28;20074;-59
2021/07/23 06:20:58;;;;;;;12.88;9.50;;;22.90;73.00;;;;;;4981043;28;20169;-58
2021/07/23 06:23:24;;;;;;;14.95;9.20;;;22.90;73.00;;;;;;4981803;28;20015;-59
2021/07/23 06:25:50;;;;;;;13.30;8.95;;;22.90;73.00;;;;;;4975632;28;20122;-58
2021/07/23 06:28:15;;;;;;;11.40;8.90;;;22.90;73.10;;;;;;4959969;28;20060;-58
2021/07/23 06:30:41;;;;;;;108.00;15.40;;;22.90;73.20;;;;;;4975690;28;20549;-60
2021/07/23 06:33:06;;;;;;;22.48;9.15;;;22.90;73.20;;;;;;4979176;28;20042;-59
2021/07/23 06:35:32;;;;;;;14.73;9.30;;;22.90;73.30;;;;;;4976241;28;20089;-58
2021/07/23 06:37:58;;;;;;;18.40;9.15;;;22.90;73.30;;;;;;4984793;28;20043;-58
2021/07/23 06:40:24;;;;;;;14.77;9.38;;;22.90;73.40;;;;;;4979448;28;20030;-59
2021/07/23 06:42:49;;;;;;;24.50;10.55;;;22.90;73.60;;;;;;4984404;28;20756;-59
2021/07/23 06:45:15;;;;;;;22.10;10.55;;;22.90;73.80;;;;;;4980348;28;20703;-58
2021/07/23 06:47:40;;;;;;;28.75;10.93;;;23.00;73.70;;;;;;4980859;28;20034;-58
2021/07/23 06:50:06;;;;;;;26.75;9.70;;;22.90;73.90;;;;;;4983392;28;20037;-59
2021/07/23 06:52:37;;;;;;;17.83;9.75;;;22.90;73.80;;;;;;4978191;28;20064;-59
2021/07/23 06:55:02;;;;;;;73.85;15.68;;;22.90;73.70;;;;;;4976488;28;20034;-58
2021/07/23 06:57:31;;;;;;;49.95;13.05;;;22.90;74.10;;;;;;4980939;28;20104;-58
2021/07/23 06:59:57;;;;;;;43.35;12.65;;;22.90;74.40;;;;;;4982098;28;20057;-58
2021/07/23 07:02:23;;;;;;;40.45;11.77;;;22.90;74.30;;;;;;4982857;28;20054;-58
2021/07/23 07:04:49;;;;;;;50.78;13.52;;;22.90;74.20;;;;;;4981965;28;20053;-59
2021/07/23 07:07:16;;;;;;;45.15;12.85;;;22.90;74.70;;;;;;4983102;28;20030;-58
2021/07/23 07:09:43;;;;;;;29.25;12.20;;;22.90;74.90;;;;;;4971893;28;20042;-59
2021/07/23 07:12:09;;;;;;;33.38;13.45;;;22.90;75.10;;;;;;4974792;28;20033;-59
2021/07/23 07:14:35;;;;;;;32.00;12.10;;;22.90;75.20;;;;;;4978396;28;20030;-59
2021/07/23 07:17:00;;;;;;;57.65;14.15;;;22.80;75.40;;;;;;4975963;28;20038;-59
2021/07/23 07:19:26;;;;;;;27.25;11.30;;;22.80;75.80;;;;;;4981079;28;20037;-59
2021/07/23 07:21:51;;;;;;;28.20;13.38;;;22.80;76.00;;;;;;4980582;28;20564;-59
2021/07/23 07:24:17;;;;;;;34.83;12.88;;;22.80;76.20;;;;;;4979612;28;20671;-59
2021/07/23 07:26:44;;;;;;;36.42;13.15;;;22.80;76.60;;;;;;4979818;28;20053;-59
2021/07/23 07:29:09;;;;;;;25.95;12.88;;;22.80;76.50;;;;;;4982140;28;20041;-59
2021/07/23 07:31:35;;;;;;;37.60;12.52;;;22.80;76.50;;;;;;4966029;28;20026;-59
2021/07/23 07:34:01;;;;;;;31.27;12.85;;;22.80;76.60;;;;;;4991616;28;20034;-59
2021/07/23 07:36:27;;;;;;;41.28;14.23;;;22.80;76.50;;;;;;4974415;28;20093;-59
2021/07/23 07:38:53;;;;;;;31.55;13.45;;;22.90;77.00;;;;;;4979462;28;20031;-59
2021/07/23 07:41:19;;;;;;;69.45;15.82;;;22.80;76.80;;;;;;4982622;28;20034;-59
2021/07/23 07:43:44;;;;;;;41.03;15.48;;;22.80;76.60;;;;;;4978458;28;20057;-59
2021/07/23 07:46:10;;;;;;;44.53;14.57;;;22.90;76.80;;;;;;4978663;28;20791;-59
2021/07/23 07:48:35;;;;;;;53.13;15.02;;;22.90;77.00;;;;;;4978386;28;20050;-59
2021/07/23 07:51:01;;;;;;;66.40;15.95;;;22.90;77.50;;;;;;4977627;28;20033;-58
2021/07/23 07:53:26;;;;;;;74.85;16.83;;;22.90;77.90;;;;;;4979460;28;20018;-59
2021/07/23 07:55:52;;;;;;;76.75;16.58;;;22.90;77.30;;;;;;4978665;28;20125;-60
2021/07/23 07:58:17;;;;;;;53.72;15.73;;;22.90;77.20;;;;;;4982373;28;20050;-59
2021/07/23 08:00:43;;;;;;;33.22;14.55;;;23.00;77.00;;;;;;4979724;28;20593;-59
2021/07/23 08:03:08;;;;;;;57.17;16.40;;;23.00;77.60;;;;;;4978956;28;20157;-59
2021/07/23 08:05:34;;;;;;;37.85;15.07;;;23.00;77.70;;;;;;4981318;28;20180;-59
2021/07/23 08:08:01;;;;;;;47.25;15.82;;;23.00;78.00;;;;;;4976622;28;20034;-59
2021/07/23 08:10:26;;;;;;;35.55;14.70;;;23.00;78.30;;;;;;4980776;28;20030;-59
2021/07/23 08:12:53;;;;;;;36.45;14.90;;;23.00;78.20;;;;;;4981598;28;20030;-59
2021/07/23 08:15:19;;;;;;;46.70;15.70;;;23.00;77.90;;;;;;4978462;28;20097;-59
2021/07/23 08:17:44;;;;;;;39.17;14.75;;;23.10;78.30;;;;;;4977806;28;20102;-59
2021/07/23 08:20:10;;;;;;;46.42;15.35;;;23.10;78.10;;;;;;4975844;28;20111;-60
2021/07/23 08:22:36;;;;;;;40.40;15.35;;;23.10;78.10;;;;;;4978202;28;20183;-59
2021/07/23 08:25:02;;;;;;;54.55;16.10;;;23.10;78.10;;;;;;4980413;28;20665;-59
2021/07/23 08:27:28;;;;;;;51.40;16.35;;;23.10;77.80;;;;;;4976180;28;20046;-59
2021/07/23 08:29:53;;;;;;;55.38;16.52;;;23.20;78.20;;;;;;4977255;28;20780;-59
2021/07/23 08:32:19;;;;;;;42.88;16.42;;;23.20;78.40;;;;;;4975011;28;20069;-59
2021/07/23 08:34:45;;;;;;;65.80;18.88;;;23.20;78.20;;;;;;4978728;28;20050;-59
2021/07/23 08:37:10;;;;;;;66.43;20.13;;;23.20;78.30;;;;;;4993490;28;20064;-59
2021/07/23 08:39:36;;;;;;;70.07;17.27;;;23.20;78.30;;;;;;4979731;28;20061;-59
2021/07/23 08:42:27;;;;;;;94.35;20.48;;;23.20;78.10;;;;;;4980242;28;20062;-60
2021/07/23 08:44:53;;;;;;;103.85;23.25;;;23.20;78.00;;;;;;4981280;28;20080;-59
2021/07/23 08:47:19;;;;;;;75.22;19.58;;;23.30;77.90;;;;;;4977987;28;20046;-59
2021/07/23 08:49:45;;;;;;;59.55;17.70;;;23.30;77.70;;;;;;4980000;28;20022;-59
2021/07/23 08:52:10;;;;;;;61.75;18.25;;;23.30;77.70;;;;;;4978976;28;20029;-59
2021/07/23 08:54:36;;;;;;;42.15;15.75;;;23.30;77.60;;;;;;4979329;28;20927;-59
2021/07/23 08:57:03;;;;;;;56.95;17.58;;;23.40;77.60;;;;;;4976651;28;20030;-59
2021/07/23 08:59:30;;;;;;;65.10;17.95;;;23.40;77.70;;;;;;4981134;28;20035;-59
2021/07/23 09:02:04;;;;;;;70.57;17.67;;;23.40;77.50;;;;;;4975306;28;20049;-59
2021/07/23 09:04:35;;;;;;;90.47;19.52;;;23.50;77.50;;;;;;4979156;28;20041;-59
2021/07/23 09:07:15;;;;;;;82.38;20.15;;;23.50;77.50;;;;;;4977970;28;20045;-58
2021/07/23 09:09:41;;;;;;;91.70;21.75;;;23.50;77.40;;;;;;4978900;28;20040;-60
2021/07/23 09:12:07;;;;;;;92.25;19.63;;;23.60;77.40;;;;;;4977672;28;20140;-59
2021/07/23 09:14:33;;;;;;;89.68;22.00;;;23.60;77.50;;;;;;4978572;28;20171;-59
2021/07/23 09:16:58;;;;;;;122.50;24.63;;;23.60;77.20;;;;;;4977586;28;20524;-59
2021/07/23 09:19:24;;;;;;;107.28;23.33;;;23.60;77.20;;;;;;4976895;28;20038;-59
2021/07/23 09:21:57;;;;;;;88.32;20.58;;;23.70;77.10;;;;;;4978213;28;20065;-59
2021/07/23 09:24:23;;;;;;;94.90;20.30;;;23.70;76.80;;;;;;4977928;28;20026;-60
2021/07/23 09:26:48;;;;;;;124.38;24.95;;;23.80;76.70;;;;;;4977473;28;20034;-59
2021/07/23 09:29:14;;;;;;;82.25;19.80;;;23.80;77.00;;;;;;4978306;28;20128;-60
2021/07/23 09:31:39;;;;;;;89.80;20.55;;;23.80;76.90;;;;;;4957091;28;20018;-59
2021/07/23 09:34:05;;;;;;;78.85;20.63;;;23.70;76.80;;;;;;4993415;28;20032;-59
2021/07/23 09:36:33;;;;;;;93.82;22.17;;;23.90;76.70;;;;;;4976346;28;20045;-59
2021/07/23 09:39:03;;;;;;;105.38;21.75;;;23.90;76.60;;;;;;4961412;28;20042;-60
2021/07/23 09:41:28;;;;;;;118.78;23.65;;;23.90;76.60;;;;;;4977497;28;20085;-59
2021/07/23 09:44:05;;;;;;;137.38;27.08;;;24.00;76.70;;;;;;4978339;28;20034;-58
2021/07/23 09:46:35;;;;;;;103.93;23.23;;;24.00;76.60;;;;;;4975753;28;20030;-59
2021/07/23 09:49:21;;;;;;;109.07;23.90;;;24.10;76.70;;;;;;4978301;28;20018;-59
2021/07/23 09:51:49;;;;;;;113.70;22.80;;;24.00;76.70;;;;;;4973042;28;20046;-59
2021/07/23 09:54:15;;;;;;;118.10;24.80;;;24.10;76.40;;;;;;4958628;28;20026;-59
2021/07/23 09:56:41;;;;;;;164.80;27.67;;;24.10;76.50;;;;;;4980261;28;20038;-59
2021/07/23 09:59:11;;;;;;;114.78;23.90;;;24.10;76.40;;;;;;4978080;28;20026;-59
2021/07/23 10:01:41;;;;;;;146.90;24.52;;;24.20;76.20;;;;;;4977520;28;20061;-59
2021/07/23 10:04:30;;;;;;;125.22;23.40;;;24.20;76.20;;;;;;4975858;28;20033;-60
2021/07/23 10:07:17;;;;;;;81.13;21.52;;;24.30;75.90;;;;;;4993269;28;20544;-59
2021/07/23 10:09:43;;;;;;;123.80;23.13;;;24.30;75.80;;;;;;4980549;28;20054;-59
2021/07/23 10:12:09;;;;;;;119.15;24.92;;;24.40;75.80;;;;;;4977695;28;20228;-59
2021/07/23 10:14:37;;;;;;;88.85;22.98;;;24.40;75.80;;;;;;4976093;28;20039;-59
2021/07/23 10:17:03;;;;;;;86.55;21.40;;;24.50;75.60;;;;;;4957756;28;20030;-59
2021/07/23 10:19:28;;;;;;;185.70;31.27;;;24.50;75.40;;;;;;4977861;28;20409;-59
2021/07/23 10:21:55;;;;;;;103.88;24.25;;;24.50;75.30;;;;;;4978759;28;20083;-59
2021/07/23 10:24:21;;;;;;;117.97;23.50;;;24.60;75.30;;;;;;4976414;28;20053;-59
2021/07/23 10:26:47;;;;;;;125.05;25.67;;;24.60;75.20;;;;;;4976037;28;20037;-61
2021/07/23 10:29:12;;;;;;;103.88;23.45;;;24.80;75.30;;;;;;4977781;28;20967;-58
2021/07/23 10:31:38;;;;;;;97.88;22.85;;;24.70;74.90;;;;;;4976230;28;21879;-59
2021/07/23 10:34:04;;;;;;;110.32;22.52;;;24.70;74.80;;;;;;4975558;28;20050;-59
2021/07/23 10:36:30;;;;;;;101.20;21.17;;;24.70;74.50;;;;;;4974831;28;20026;-59
2021/07/23 10:39:05;;;;;;;91.22;20.90;;;24.80;74.20;;;;;;4992602;28;20053;-60
2021/07/23 10:41:41;;;;;;;93.20;21.17;;;24.80;74.10;;;;;;4978042;28;20023;-59
2021/07/23 10:44:11;;;;;;;72.65;18.48;;;24.90;73.90;;;;;;4977825;28;20031;-59
2021/07/23 10:46:43;;;;;;;95.50;21.13;;;24.90;73.40;;;;;;4961747;28;20027;-59
2021/07/23 10:49:30;;;;;;;88.80;22.02;;;24.90;73.70;;;;;;4979507;28;20073;-61
2021/07/23 10:51:58;;;;;;;83.82;21.17;;;25.00;73.40;;;;;;4958972;28;20111;-61
2021/07/23 10:54:28;;;;;;;65.95;20.30;;;25.10;73.20;;;;;;4977545;28;20022;-61
2021/07/23 10:57:06;;;;;;;64.82;19.52;;;25.10;72.80;;;;;;4976284;28;20018;-61
2021/07/23 10:59:43;;;;;;;92.45;20.73;;;25.20;72.80;;;;;;4994631;28;20045;-61
2021/07/23 11:02:13;;;;;;;74.32;20.25;;;25.20;72.90;;;;;;4979041;28;20112;-61
2021/07/23 11:04:39;;;;;;;66.68;19.13;;;25.20;72.70;;;;;;4978588;28;20076;-61
2021/07/23 11:07:05;;;;;;;68.55;19.88;;;25.40;72.50;;;;;;4978000;28;20034;-61
2021/07/23 11:09:31;;;;;;;70.93;19.83;;;25.40;72.20;;;;;;4973517;28;20150;-61
2021/07/23 11:11:58;;;;;;;67.50;19.48;;;25.50;72.20;;;;;;4980134;28;20109;-62
2021/07/23 11:14:23;;;;;;;64.05;18.30;;;25.60;71.90;;;;;;4977354;28;20026;-61
2021/07/23 11:16:49;;;;;;;62.58;18.38;;;25.60;71.70;;;;;;4978725;28;20031;-61
2021/07/23 11:19:19;;;;;;;63.13;17.98;;;25.70;71.40;;;;;;4976979;28;20485;-62
2021/07/23 11:21:44;;;;;;;63.72;18.17;;;25.80;70.90;;;;;;4975904;28;20386;-59
2021/07/23 11:24:14;;;;;;;41.40;17.08;;;25.90;70.60;;;;;;4981280;28;20030;-58
2021/07/23 11:26:52;;;;;;;75.43;18.77;;;25.90;69.80;;;;;;4983193;28;20042;-61
2021/07/23 11:29:31;;;;;;;51.05;16.77;;;26.10;69.30;;;;;;4983073;28;20042;-59
2021/07/23 11:32:11;;;;;;;85.70;19.05;;;26.20;68.70;;;;;;4963422;28;20038;-59
2021/07/23 11:34:39;;;;;;;39.60;15.98;;;26.20;67.90;;;;;;4990541;28;20027;-59
2021/07/23 11:37:29;;;;;;;51.10;17.67;;;26.40;67.10;;;;;;4980379;28;20083;-61
2021/07/23 11:40:01;;;;;;;35.00;14.93;;;26.50;66.30;;;;;;4983602;28;20382;-62
2021/07/23 11:42:35;;;;;;;45.70;16.38;;;26.60;65.60;;;;;;4982736;28;20088;-61
2021/07/23 11:45:01;;;;;;;34.22;14.73;;;26.60;65.20;;;;;;4981160;28;20548;-61
2021/07/23 11:47:40;;;;;;;45.65;15.98;;;26.70;64.80;;;;;;4980672;28;20145;-61
2021/07/23 11:50:10;;;;;;;37.50;15.13;;;26.70;64.30;;;;;;4978330;28;20165;-62
2021/07/23 11:52:36;;;;;;;35.75;16.35;;;26.80;64.00;;;;;;4980549;28;20042;-62
2021/07/23 11:55:04;;;;;;;30.55;14.40;;;26.90;64.10;;;;;;4980545;28;20104;-59
2021/07/23 11:57:30;;;;;;;45.22;14.25;;;26.90;63.60;;;;;;4979667;28;20101;-59
2021/07/23 11:59:56;;;;;;;57.90;17.92;;;27.00;63.30;;;;;;4979706;28;20038;-58
2021/07/23 12:02:26;;;;;;;40.40;14.57;;;27.10;63.10;;;;;;4979626;28;20390;-59
2021/07/23 12:05:21;;;;;;;28.92;14.95;;;27.10;62.90;;;;;;4981150;28;20038;-59
2021/07/23 12:08:02;;;;;;;33.88;14.90;;;27.20;62.60;;;;;;4973146;28;20042;-59
2021/07/23 12:10:30;;;;;;;42.13;14.98;;;27.30;62.30;;;;;;4980018;28;20038;-59
2021/07/23 12:12:57;;;;;;;44.65;15.85;;;27.40;62.20;;;;;;4980866;28;20564;-59
2021/07/23 12:15:22;;;;;;;42.10;15.27;;;27.40;61.70;;;;;;4980854;28;20197;-58
2021/07/23 12:17:49;;;;;;;41.03;15.02;;;27.40;61.20;;;;;;4982067;28;20026;-59
2021/07/23 12:20:15;;;;;;;49.97;15.25;;;27.50;60.90;;;;;;4982228;28;20129;-59
2021/07/23 12:22:41;;;;;;;34.55;13.75;;;27.60;60.90;;;;;;4983916;28;20022;-59
2021/07/23 12:25:51;;;;;;;40.22;14.40;;;27.70;60.40;;;;;;4978509;28;20041;-59
2021/07/23 12:28:18;;;;;;;43.97;15.73;;;27.70;60.10;;;;;;4976699;28;20037;-59
2021/07/23 12:30:46;;;;;;;41.65;14.68;;;27.80;59.70;;;;;;4981418;28;20022;-61